Latest Weather Observations for kunanyi / Mount Wellington

IDT60901

Issued at 8:31 pm EST Tuesday 3 May 2016 (issued every 10 minutes, with the page automatically refreshed every 10 minutes)

About weather observations | Map of Hobart area stations | Latest observations for Hobart area | Other Formats
Station Details ID: 094087 Name: KUNANYI (MOUNT WELLINGTON PINNACLE) Lat: -42.90 Lon: 147.24 Height: 1260.47 m
Data from the previous 72 hours. | See also: Recent months at kunanyi / Mount Wellington
Date/Time
EST
Tmp

°C
App
Tmp
°C
Dew
Point
°C
Rel
Hum
%
Delta-T

°C
Wind Press
QNH
hPa
Press
MSL
hPa
Rain
since
9 am
mm
Dir
 
Spd
km/h
Gust
km/h
Spd
kts
Gust
kts
03/08:30pm -1.2 -12.9 -1.8 96 0.2 W 50 82 27 44 - - 5.4
03/08:25pm -1.1 -14.0 -1.8 95 0.2 W 56 82 30 44 - - 5.4
03/08:00pm -1.1 -16.1 -1.9 94 0.2 W 67 91 36 49 - - 5.4
03/07:30pm -1.2 -16.6 -1.9 95 0.2 W 69 93 37 50 - - 5.4
03/07:05pm -1.3 -14.8 -2.0 95 0.2 W 59 93 32 50 - - 5.4
03/07:00pm -1.1 -12.1 -1.7 96 0.2 W 46 83 25 45 - - 5.4
03/06:59pm -1.1 -11.5 -1.5 97 0.1 W 43 83 23 45 - - 5.4
03/06:57pm -1.1 -10.7 -1.5 97 0.1 W 39 61 21 33 - - 5.4
03/06:51pm -0.9 -9.7 -1.3 97 0.1 WSW 35 46 19 25 - - 5.4
03/06:45pm -0.8 -10.8 -1.4 96 0.2 WSW 41 65 22 35 - - 5.4
03/06:30pm -0.7 -13.1 -1.3 96 0.2 W 54 82 29 44 - - 5.4
03/06:14pm -0.6 -10.1 -1.0 97 0.1 W 39 82 21 44 - - 5.4
03/06:11pm -0.6 -8.8 -1.0 97 0.1 W 32 59 17 32 - - 5.4
03/06:00pm -0.3 -8.1 -0.6 98 0.1 W 30 39 16 21 - - 5.4
03/05:44pm -0.2 -9.3 -0.6 97 0.1 WNW 37 48 20 26 - - 5.4
03/05:30pm -0.1 -9.6 -0.5 97 0.2 WNW 39 61 21 33 - - 5.4
03/05:25pm 0.0 -10.2 -0.4 97 0.2 WNW 43 69 23 37 - - 5.4
03/05:11pm -0.1 -12.8 -0.5 97 0.2 WNW 56 76 30 41 - - 5.4
03/05:00pm -0.1 -12.8 -0.7 96 0.2 WNW 56 72 30 39 - - 5.4
03/04:30pm 0.1 -12.7 -1.3 90 0.5 W 56 74 30 40 - - 5.4
03/04:22pm 0.2 -13.2 -1.7 87 0.7 W 59 80 32 43 - - 5.4
03/04:20pm 0.3 -13.2 -2.1 84 0.9 W 59 80 32 43 - - 5.4
03/04:00pm 0.1 -9.7 -0.5 96 0.2 W 41 67 22 36 - - 5.2
03/03:54pm 0.4 -9.8 -0.3 95 0.3 W 43 63 23 34 - - 5.2
03/03:30pm 1.4 -8.6 0.7 95 0.3 W 43 61 23 33 - - 5.2
03/03:28pm 1.5 -8.2 0.8 95 0.3 W 41 59 22 32 - - 5.2
03/03:00pm 1.8 -7.8 1.2 96 0.2 W 41 59 22 32 - - 5.2
03/02:57pm 1.9 -7.3 1.3 96 0.2 W 39 59 21 32 - - 5.2
03/02:30pm 2.0 -7.5 1.7 98 0.1 W 41 57 22 31 - - 5.0
03/02:24pm 2.0 -7.5 1.7 98 0.1 W 41 57 22 31 - - 5.0
03/02:00pm 2.4 -3.1 2.1 98 0.1 WNW 20 33 11 18 - - 4.8
03/01:30pm 2.5 -3.0 2.1 97 0.2 NW 20 41 11 22 - - 4.8
03/01:15pm 2.5 -4.5 2.1 97 0.2 WNW 28 48 15 26 - - 4.8
03/01:00pm 3.0 -4.3 2.6 97 0.2 WNW 30 46 16 25 - - 4.8
03/12:30pm 2.1 -5.7 1.8 98 0.1 WNW 32 41 17 22 - - 4.8
03/12:08pm 1.6 -8.9 1.3 98 0.1 W 46 65 25 35 - - 4.8
03/12:00pm 2.0 -8.8 1.7 98 0.1 WNW 48 63 26 34 - - 4.6
03/11:54am 2.1 -7.8 1.8 98 0.1 WNW 43 63 23 34 - - 4.6
03/11:30am 2.2 -5.8 1.9 98 0.1 WNW 33 43 18 23 - - 4.4
03/11:23am 2.7 -5.2 2.4 98 0.1 NW 33 48 18 26 - - 4.4
03/11:00am 2.6 -7.4 2.3 98 0.1 NW 44 63 24 34 - - 3.4
03/10:30am 2.5 -6.9 2.2 98 0.1 NW 41 61 22 33 - - 2.4
03/10:23am 2.5 -6.9 2.2 98 0.1 NW 41 61 22 33 - - 2.0
03/10:00am 2.7 -5.9 2.4 98 0.1 NW 37 54 20 29 - - 1.0
03/09:30am 2.5 -7.3 2.2 98 0.1 WNW 43 52 23 28 - - 0.2
03/09:00am 2.7 -7.1 2.4 98 0.1 WNW 43 65 23 35 - - 14.6
03/08:57am 2.8 -7.0 2.5 98 0.1 W 43 65 23 35 - - 14.6
03/08:56am 2.9 -6.8 2.6 98 0.1 W 43 65 23 35 - - 14.6
03/08:30am 3.0 -6.7 2.7 98 0.1 WSW 43 61 23 33 - - 14.4
03/08:26am 3.2 -6.5 2.9 98 0.1 W 43 61 23 33 - - 14.4
03/08:08am 4.0 -4.0 3.7 98 0.1 WNW 35 48 19 26 - - 14.2
03/08:00am 4.4 -4.3 4.1 98 0.1 WNW 39 50 21 27 - - 14.0
03/07:50am 4.4 -4.7 4.1 98 0.1 WNW 41 59 22 32 - - 14.0
03/07:30am 4.5 -5.5 4.2 98 0.1 NW 46 69 25 37 - - 13.8
03/07:29am 4.5 -5.5 4.2 98 0.1 WNW 46 69 25 37 - - 13.8
03/07:02am 4.5 -8.0 4.2 98 0.1 NW 59 80 32 43 - - 13.2
03/07:00am 4.6 -7.5 4.3 98 0.1 WNW 57 76 31 41 - - 13.2
03/06:30am 4.7 -7.4 4.4 98 0.1 WNW 57 80 31 43 - - 12.8
03/06:00am 4.7 -7.7 4.4 98 0.1 WNW 59 82 32 44 - - 12.0
03/05:30am 5.5 -6.8 5.2 98 0.1 NW 59 85 32 46 - - 11.4
03/05:29am 5.6 -6.3 5.3 98 0.1 NW 57 85 31 46 - - 11.4
03/05:26am 5.7 -4.8 5.4 98 0.1 NW 50 70 27 38 - - 11.0
03/05:00am 5.8 -3.4 5.5 98 0.1 NNW 43 65 23 35 - - 8.4
03/04:30am 5.8 -2.6 5.5 98 0.1 NW 39 59 21 32 - - 7.6
03/04:00am 6.0 -3.7 5.7 98 0.1 NW 46 65 25 35 - - 6.8
03/03:30am 5.9 -5.9 5.6 98 0.1 NNW 57 82 31 44 - - 4.6
03/03:01am 5.9 -7.4 5.6 98 0.1 NNW 65 83 35 45 - - 2.6
03/03:00am 5.8 -7.2 5.5 98 0.1 NNW 63 80 34 43 - - 2.6
03/02:30am 5.8 -8.5 5.4 97 0.2 NNW 70 96 38 52 - - 1.4
03/02:00am 5.9 -8.9 5.2 95 0.3 NNW 72 91 39 49 - - 0.2
03/01:30am 6.0 -10.0 4.6 91 0.7 NNW 78 107 42 58 - - 0.2
03/01:00am 6.0 -10.0 4.5 90 0.7 NNW 78 102 42 55 - - 0.2
03/12:30am 5.9 -11.1 4.2 89 0.8 NW 83 106 45 57 - - 0.2
03/12:00am 5.9 -11.2 4.1 88 0.8 NNW 83 113 45 61 - - 0.2
 
Date/Time
EST
Tmp

°C
App
Tmp
°C
Dew
Point
°C
Rel
Hum
%
Delta-T

°C
Wind Press
QNH
hPa
Press
MSL
hPa
Rain
since
9 am
mm
Dir
 
Spd
km/h
Gust
km/h
Spd
kts
Gust
kts
02/11:30pm 5.8 -11.7 3.8 87 0.9 NNW 85 113 46 61 - - 0.2
02/11:00pm 5.5 -12.4 3.7 88 0.8 NW 87 113 47 61 - - 0.2
02/10:30pm 5.3 -12.6 3.5 88 0.8 NNW 87 109 47 59 - - 0.2
02/10:10pm 5.0 -13.0 3.2 88 0.8 NW 87 107 47 58 - - 0.2
02/10:00pm 5.0 -13.0 3.2 88 0.8 NNW 87 104 47 56 - - 0.2
02/09:30pm 5.2 -13.5 3.5 89 0.8 NNW 91 117 49 63 - - 0.2
02/09:00pm 5.0 -13.3 3.7 91 0.6 NNW 89 120 48 65 - - 0.2
02/08:30pm 4.8 -11.7 3.9 94 0.4 NNW 80 109 43 59 - - 0.2
02/08:00pm 4.8 -9.6 4.1 95 0.3 NNW 69 93 37 50 - - 0.2
02/07:30pm 4.7 -8.6 4.0 95 0.3 NNW 63 93 34 50 - - 0.2
02/07:00pm 4.7 -7.8 4.3 97 0.2 NNW 59 87 32 47 - - 0.2
02/06:30pm 4.6 -9.8 4.2 97 0.2 NNW 69 95 37 51 - - 0.2
02/06:00pm 4.5 -9.2 3.9 96 0.3 NNW 65 93 35 50 - - 0.0
02/05:32pm 4.5 -9.5 4.1 97 0.2 NNW 67 87 36 47 - - 0.0
02/05:30pm 4.5 -9.5 4.1 97 0.2 NNW 67 85 36 46 - - 0.0
02/05:00pm 4.8 -8.2 3.5 91 0.6 NNW 61 95 33 51 - - 0.0
02/04:51pm 4.9 -7.4 3.4 90 0.7 NNW 57 91 31 49 - - 0.0
02/04:30pm 4.8 -5.4 3.1 89 0.8 NNW 46 80 25 43 - - 0.0
02/04:00pm 5.0 -5.6 3.2 88 0.8 NNW 48 74 26 40 - - 0.0
02/03:30pm 5.2 -6.1 3.2 87 0.9 NNW 52 76 28 41 - - 0.0
02/03:16pm 5.0 -5.2 3.0 87 0.9 NNW 46 70 25 38 - - 0.0
02/03:15pm 5.0 -5.2 3.0 87 0.9 NNW 46 70 25 38 - - 0.0
02/03:00pm 5.1 -7.6 2.8 85 1.0 NNW 59 80 32 43 - - 0.0
02/02:30pm 4.9 -6.5 2.8 86 0.9 NNW 52 76 28 41 - - 0.0
02/02:08pm 4.8 -7.0 2.7 86 0.9 NW 54 80 29 43 - - 0.0
02/02:00pm 4.8 -7.4 2.7 86 0.9 NW 56 69 30 37 - - 0.0
02/01:30pm 4.7 -7.7 2.6 86 0.9 NW 57 80 31 43 - - 0.0
02/01:00pm 4.6 -6.1 2.8 88 0.8 NW 48 70 26 38 - - 0.0
02/12:30pm 4.0 -7.0 3.0 93 0.4 NW 50 72 27 39 - - 0.0
02/12:00pm 3.3 -7.7 3.0 98 0.1 NW 50 72 27 39 - - 0.0
02/11:30am 3.1 -7.9 2.8 98 0.1 NW 50 70 27 38 - - 0.0
02/11:01am 2.8 -7.5 2.5 98 0.1 NW 46 69 25 37 - - 0.0
02/11:00am 2.8 -7.5 2.5 98 0.1 NW 46 69 25 37 - - 0.0
02/10:30am 2.3 -5.5 2.0 98 0.1 NNW 32 50 17 27 - - 0.0
02/10:11am 1.9 -6.1 1.6 98 0.1 NW 33 52 18 28 - - 0.0
02/10:00am 1.9 -6.9 1.6 98 0.1 WNW 37 50 20 27 - - 0.0
02/09:30am 1.5 -7.8 0.9 96 0.2 NW 39 61 21 33 - - 0.0
02/09:28am 1.6 -8.0 1.0 96 0.2 WNW 41 61 22 33 - - 0.0
02/09:00am 1.5 -9.8 0.9 96 0.2 W 50 67 27 36 - - 10.4
02/08:30am 1.5 -11.0 0.8 95 0.3 WNW 56 76 30 41 - - 10.4
02/08:05am 1.1 -9.5 0.7 97 0.2 W 46 69 25 37 - - 10.4
02/08:00am 1.2 -9.4 0.8 97 0.2 W 46 57 25 31 - - 10.4
02/07:30am 0.9 -11.3 0.5 97 0.2 W 54 83 29 45 - - 10.4
02/07:14am 0.9 -11.8 0.5 97 0.2 W 57 80 31 43 - - 10.4
02/07:12am 0.8 -12.0 0.4 97 0.2 W 57 80 31 43 - - 10.4
02/07:02am 0.7 -9.6 0.3 97 0.2 W 44 70 24 38 - - 10.4
02/07:00am 0.8 -9.5 0.4 97 0.2 W 44 61 24 33 - - 10.4
02/06:30am 1.3 -11.9 0.1 92 0.5 W 59 98 32 53 - - 10.4
02/06:21am 0.9 -11.9 0.3 96 0.2 W 57 98 31 53 - - 10.4
02/06:09am 0.4 -12.4 -0.2 96 0.2 W 57 78 31 42 - - 10.4
02/06:00am 0.5 -12.7 -0.2 95 0.3 W 59 78 32 42 - - 10.4
02/05:30am 0.5 -13.5 -0.4 94 0.4 W 63 96 34 52 - - 10.4
02/05:00am 0.3 -15.1 -0.8 92 0.4 W 70 104 38 56 - - 10.4
02/04:30am 0.3 -15.4 -0.4 95 0.3 W 72 96 39 52 - - 10.4
02/04:00am 0.1 -16.5 -1.0 92 0.4 W 76 102 41 55 - - 10.4
02/03:30am 0.1 -15.3 -0.5 96 0.2 W 70 95 38 51 - - 10.4
02/03:17am -0.1 -14.1 -0.5 97 0.2 WSW 63 83 34 45 - - 10.4
02/03:14am -0.1 -14.9 -0.7 96 0.2 WSW 67 93 36 50 - - 10.4
02/03:01am 0.0 -17.7 -0.8 94 0.3 W 82 102 44 55 - - 10.4
02/03:00am 0.0 -17.9 -0.8 94 0.3 W 83 102 45 55 - - 10.4
02/02:30am -0.3 -17.2 -1.0 95 0.3 WSW 78 100 42 54 - - 10.4
02/02:12am -0.5 -16.4 -1.6 92 0.4 WSW 72 93 39 50 - - 10.4
02/02:09am -0.3 -16.2 -1.4 92 0.4 W 72 93 39 50 - - 10.4
02/02:00am -0.4 -13.4 -1.1 95 0.2 WSW 57 85 31 46 - - 10.4
02/01:30am -0.5 -12.9 -1.1 96 0.2 WSW 54 85 29 46 - - 10.4
02/01:11am -0.4 -13.7 -1.0 96 0.2 WSW 59 87 32 47 - - 10.4
02/01:03am -0.5 -11.7 -0.9 97 0.1 W 48 69 26 37 - - 10.4
02/01:00am -0.5 -11.4 -0.9 97 0.1 W 46 61 25 33 - - 10.4
02/12:30am -0.7 -13.1 -1.1 97 0.1 WSW 54 76 29 41 - - 10.4
02/12:02am -0.5 -12.5 -0.8 98 0.1 WSW 52 72 28 39 - - 10.4
02/12:00am -0.5 -12.9 -0.8 98 0.1 WSW 54 72 29 39 - - 10.4
 
Date/Time
EST
Tmp

°C
App
Tmp
°C
Dew
Point
°C
Rel
Hum
%
Delta-T

°C
Wind Press
QNH
hPa
Press
MSL
hPa
Rain
since
9 am
mm
Dir
 
Spd
km/h
Gust
km/h
Spd
kts
Gust
kts
01/11:30pm -0.3 -14.4 -0.7 97 0.1 WSW 63 87 34 47 - - 10.4
01/11:28pm -0.3 -14.4 -0.7 97 0.1 WSW 63 87 34 47 - - 10.4
01/11:25pm -0.3 -15.5 -0.7 97 0.1 WSW 69 95 37 51 - - 10.4
01/11:00pm -0.4 -18.1 -0.8 97 0.1 WSW 82 106 44 57 - - 10.4
01/10:30pm -0.4 -18.6 -0.8 97 0.1 WSW 85 106 46 57 - - 10.4
01/10:00pm -0.1 -19.8 -0.4 98 0.1 WSW 93 113 50 61 - - 10.4
01/09:30pm 0.1 -17.7 -0.2 98 0.1 WSW 83 106 45 57 - - 10.4
01/09:00pm 0.3 -15.0 0.0 98 0.1 SW 70 95 38 51 - - 10.4
01/08:30pm 0.8 -16.7 0.5 98 0.1 WSW 82 109 44 59 - - 10.4
01/08:00pm 0.9 -15.8 0.6 98 0.1 WSW 78 109 42 59 - - 10.2
01/07:30pm 1.3 -16.7 1.0 98 0.1 WSW 85 109 46 59 - - 10.2
01/07:12pm 1.5 -18.9 1.2 98 0.1 WSW 98 128 53 69 - - 10.2
01/07:00pm 1.5 -20.1 1.2 98 0.1 WSW 104 130 56 70 - - 10.2
01/06:30pm 2.1 -18.6 1.8 98 0.1 WSW 100 126 54 68 - - 10.2
01/06:00pm 2.4 -17.9 2.1 98 0.1 WSW 98 120 53 65 - - 10.0
01/05:30pm 3.3 -14.3 3.0 98 0.1 WSW 85 120 46 65 - - 9.6
01/05:28pm 3.6 -13.0 3.3 98 0.1 WSW 80 106 43 57 - - 9.4
01/05:23pm 3.7 -13.3 3.4 98 0.1 WSW 82 106 44 57 - - 9.2
01/05:11pm 4.4 -8.9 4.1 98 0.1 WSW 63 100 34 54 - - 7.8
01/05:00pm 4.5 -7.4 4.2 98 0.1 WSW 56 78 30 42 - - 7.0
01/04:56pm 4.5 -6.3 4.2 98 0.1 WSW 50 72 27 39 - - 6.6
01/04:30pm 4.2 -6.3 3.8 97 0.2 WSW 48 61 26 33 - - 5.6
01/04:00pm 4.7 -5.3 4.3 97 0.2 WSW 46 65 25 35 - - 3.4
01/03:53pm 5.1 -1.4 4.7 97 0.2 W 28 46 15 25 - - 3.2
01/03:30pm 5.4 -0.8 4.5 94 0.4 W 26 35 14 19 - - 3.0
01/03:00pm 6.8 1.5 4.8 87 0.9 W 22 30 12 16 - - 3.0
01/02:30pm 7.1 -1.9 4.8 85 1.1 WNW 41 50 22 27 - - 3.0
01/02:00pm 5.8 -3.4 3.5 85 1.0 WNW 41 50 22 27 - - 3.0
01/01:30pm 4.7 -5.1 2.4 85 1.0 NW 43 52 23 28 - - 3.0
01/01:00pm 4.9 -3.2 3.4 90 0.7 NW 35 50 19 27 - - 3.0
01/12:42pm 5.1 -5.2 2.8 85 1.0 NNW 46 65 25 35 - - 3.0
01/12:30pm 4.9 -6.6 4.5 97 0.2 NNW 54 67 29 36 - - 3.0
01/12:00pm 5.5 -4.7 5.2 98 0.1 NNW 48 78 26 42 - - 2.8
01/11:31am 6.0 -4.5 5.7 98 0.1 NNW 50 70 27 38 - - 2.0
01/11:30am 6.1 -4.7 5.8 98 0.1 NNW 52 70 28 38 - - 2.0
01/11:22am 6.3 -3.7 6.0 98 0.1 NNW 48 70 26 38 - - 2.0
01/11:00am 5.9 -4.2 5.6 98 0.1 N 48 61 26 33 - - 2.0
01/10:30am 5.8 -4.3 5.5 98 0.1 N 48 59 26 32 - - 2.0
01/10:00am 5.9 -5.4 5.5 97 0.2 N 54 65 29 35 - - 1.8
01/09:35am 5.9 -5.4 5.2 95 0.3 NNW 54 72 29 39 - - 1.2
01/09:30am 6.0 -5.7 5.3 95 0.3 NNW 56 70 30 38 - - 1.0
01/09:00am 6.0 -5.2 5.7 98 0.1 NW 54 69 29 37 - - 10.2
01/08:49am 6.4 -4.8 6.1 98 0.1 NNW 54 72 29 39 - - 9.0
01/08:30am 6.3 -3.0 6.0 98 0.1 NW 44 61 24 33 - - 8.0
01/08:01am 6.0 -3.3 5.7 98 0.1 NW 44 65 24 35 - - 4.8
01/08:00am 6.0 -3.1 5.7 98 0.1 NW 43 59 23 32 - - 4.4
01/07:48am 6.1 -3.6 5.8 98 0.1 NW 46 65 25 35 - - 3.6
01/07:43am 5.9 -4.2 5.6 98 0.1 NW 48 70 26 38 - - 3.6
01/07:36am 7.2 -3.4 6.9 98 0.1 N 52 70 28 38 - - 3.4
01/07:35am 8.2 -2.2 7.9 98 0.2 N 52 70 28 38 - - 3.4
01/07:30am 8.7 -1.2 8.4 98 0.2 N 50 69 27 37 - - 3.4
01/07:00am 8.8 0.3 8.5 98 0.2 NNE 43 54 23 29 - - 3.4
01/06:30am 8.6 1.6 8.3 98 0.2 NNE 35 46 19 25 - - 3.4
01/06:00am 7.8 0.2 7.5 98 0.2 N 37 46 20 25 - - 3.4
01/05:30am 7.5 -2.3 6.9 96 0.3 N 48 69 26 37 - - 3.4
01/05:14am 7.5 -1.0 7.1 97 0.2 N 41 61 22 33 - - 1.4
01/05:00am 8.3 0.4 7.9 97 0.2 N 39 48 21 26 - - 0.0
01/04:30am 8.3 0.7 7.4 94 0.5 N 37 48 20 26 - - 0.0
01/04:00am 8.0 0.0 7.6 97 0.2 N 39 48 21 26 - - 0.0
01/03:30am 8.3 -0.1 7.2 93 0.6 NNW 41 52 22 28 - - 0.0
01/03:00am 8.0 0.2 6.8 92 0.6 N 37 46 20 25 - - 0.0
01/02:30am 7.7 0.8 6.6 93 0.5 N 32 41 17 22 - - 0.0
01/02:00am 8.1 -0.2 6.1 87 1.0 NNW 39 50 21 27 - - 0.0
01/01:30am 7.9 0.4 6.4 90 0.7 NNW 35 48 19 26 - - 0.0
01/01:00am 7.8 0.7 6.3 90 0.7 NNW 33 46 18 25 - - 0.0
01/12:30am 7.8 0.9 6.3 90 0.7 NNW 32 50 17 27 - - 0.0
01/12:00am 7.8 -0.1 6.1 89 0.8 NNW 37 50 20 27 - - 0.0
 
Date/Time
EST
Tmp

°C
App
Tmp
°C
Dew
Point
°C
Rel
Hum
%
Delta-T

°C
Wind Press
QNH
hPa
Press
MSL
hPa
Rain
since
9 am
mm
Dir
 
Spd
km/h
Gust
km/h
Spd
kts
Gust
kts
30/11:30pm 7.8 -0.8 6.3 90 0.7 NNW 41 54 22 29 - - 0.0
30/11:00pm 8.0 -2.0 6.1 88 0.9 NNW 48 67 26 36 - - 0.0
30/10:56pm 8.1 -1.9 6.2 88 0.9 NNW 48 67 26 36 - - 0.0
30/10:30pm 8.1 -2.6 6.4 89 0.8 NNW 52 67 28 36 - - 0.0
30/10:15pm 7.9 -2.9 6.0 88 0.9 NNW 52 72 28 39 - - 0.0
30/10:00pm 8.1 -3.4 6.1 87 1.0 NNW 56 69 30 37 - - 0.0
30/09:30pm 7.9 -3.3 5.9 87 1.0 NNW 54 69 29 37 - - 0.0
30/09:00pm 7.9 -2.6 5.7 86 1.1 NW 50 63 27 34 - - 0.0

Latest Capital City Observations: Canberra | Sydney | Melbourne | Brisbane | Adelaide | Perth | Hobart | Darwin

Other Formats:

Comma delimited format used in spreadsheet applications
http://www.bom.gov.au/fwo/IDT60901/IDT60901.95979.axf

JavaScript Object Notation format (JSON) in row-major order
http://www.bom.gov.au/fwo/IDT60901/IDT60901.95979.json